Time;durP1;ratioP1;P1;durP2;ratioP2;P2;SDS_P1;SDS_P2;PMS_P1;PMS_P2;Temp;Humidity;BMP_temperature;BMP_pressure;BME280_temperature;BME280_humidity;BME280_pressure;Samples;Min_cycle;Max_cycle;Signal;HPM_P1;HPM_P2
2023/06/27 00:00:09;;;;;;;2.20;0.85;;;;;;;24.67;36.61;101800.50;4935836;29;20039;-62
2023/06/27 00:02:34;;;;;;;5.10;1.88;;;;;;;24.63;37.26;101804.66;4932066;29;20029;-62
2023/06/27 00:05:00;;;;;;;3.17;1.02;;;;;;;24.58;37.16;101806.31;4915660;29;20415;-62
2023/06/27 00:07:27;;;;;;;4.40;1.48;;;;;;;24.55;37.18;101803.97;4934990;29;20028;-62
2023/06/27 00:09:53;;;;;;;1.67;0.88;;;;;;;24.50;37.25;101799.09;4919513;29;20055;-62
2023/06/27 00:12:19;;;;;;;1.20;1.08;;;;;;;24.46;37.24;101803.25;4935584;29;20118;-62
2023/06/27 00:14:44;;;;;;;3.83;1.08;;;;;;;24.43;37.45;101803.63;4950981;28;20508;-62
2023/06/27 00:17:12;;;;;;;3.45;0.68;;;;;;;24.40;36.99;101806.75;4935003;29;20087;-61
2023/06/27 00:19:38;;;;;;;2.15;1.02;;;;;;;24.38;36.73;101808.00;4934920;29;20503;-61
2023/06/27 00:22:09;;;;;;;2.20;1.50;;;;;;;24.35;37.86;101801.03;4931951;28;20036;-63
2023/06/27 00:24:38;;;;;;;2.40;1.27;;;;;;;24.35;38.01;101811.97;4917806;29;20526;-62
2023/06/27 00:27:04;;;;;;;1.60;0.93;;;;;;;24.34;37.88;101810.31;4934683;28;20040;-61
2023/06/27 00:29:29;;;;;;;3.45;0.93;;;;;;;24.36;37.64;101812.84;4936035;29;20027;-62
2023/06/27 00:31:55;;;;;;;1.50;0.90;;;;;;;24.36;37.83;101802.72;4935938;29;20058;-62
2023/06/27 00:34:20;;;;;;;4.32;1.00;;;;;;;24.39;37.90;101807.81;4950797;28;20408;-61
2023/06/27 00:36:46;;;;;;;3.63;1.20;;;;;;;24.40;37.63;101800.47;4935904;29;20044;-62
2023/06/27 00:39:11;;;;;;;7.90;1.15;;;;;;;24.43;38.10;101806.38;4936010;29;20039;-62
2023/06/27 00:41:37;;;;;;;4.25;1.17;;;;;;;24.45;37.83;101806.19;4935771;29;20111;-61
2023/06/27 00:44:07;;;;;;;3.25;1.08;;;;;;;24.47;37.88;101804.94;4934562;29;20064;-61
2023/06/27 00:46:36;;;;;;;5.63;1.30;;;;;;;24.48;37.94;101800.31;4934426;28;20053;-61
2023/06/27 00:49:02;;;;;;;2.00;1.08;;;;;;;24.51;38.28;101805.41;4918404;28;20047;-62
2023/06/27 00:51:27;;;;;;;3.30;1.35;;;;;;;24.51;38.11;101803.50;4950726;28;20024;-62
2023/06/27 00:53:53;;;;;;;2.72;1.00;;;;;;;24.53;38.27;101809.66;4934264;28;20028;-62
2023/06/27 00:56:18;;;;;;;2.38;0.95;;;;;;;24.56;37.98;101797.44;4934427;28;20082;-62
2023/06/27 00:58:44;;;;;;;1.95;0.90;;;;;;;24.57;37.96;101802.72;4950358;28;20031;-63
2023/06/27 01:01:09;;;;;;;5.53;1.08;;;;;;;24.59;37.91;101802.53;4934415;28;20071;-62
2023/06/27 01:03:35;;;;;;;3.13;0.95;;;;;;;24.60;38.29;101799.59;4934413;28;20031;-62
2023/06/27 01:06:06;;;;;;;1.98;1.10;;;;;;;24.59;38.21;101797.91;4934326;28;20038;-61
2023/06/27 01:08:40;;;;;;;8.32;1.38;;;;;;;24.58;38.04;101801.69;4934550;28;20102;-62
2023/06/27 01:11:11;;;;;;;5.50;1.15;;;;;;;24.58;38.28;101796.19;4934242;28;20182;-61
2023/06/27 01:13:40;;;;;;;2.88;1.05;;;;;;;24.60;38.09;101799.59;4934251;29;20031;-61
2023/06/27 01:16:05;;;;;;;1.33;0.98;;;;;;;24.59;38.12;101794.31;4937309;29;20040;-62
2023/06/27 01:18:32;;;;;;;1.45;0.85;;;;;;;24.58;38.29;101801.69;4922185;29;20039;-61
2023/06/27 01:20:59;;;;;;;2.17;1.10;;;;;;;24.59;38.01;101797.91;4939388;29;20038;-62
2023/06/27 01:23:30;;;;;;;8.02;1.75;;;;;;;24.60;38.42;101799.59;4937986;29;20408;-62
2023/06/27 01:26:04;;;;;;;4.88;1.50;;;;;;;24.63;38.10;101795.59;4938655;29;20391;-62
2023/06/27 01:28:30;;;;;;;3.47;1.20;;;;;;;24.64;38.27;101783.59;4938113;28;20507;-61
2023/06/27 01:30:56;;;;;;;5.82;1.30;;;;;;;24.66;37.85;101786.97;4922104;29;20059;-62
2023/06/27 01:33:27;;;;;;;2.45;1.05;;;;;;;24.66;37.92;101787.84;4937970;29;20036;-61
2023/06/27 01:36:09;;;;;;;6.17;1.97;;;;;;;24.68;38.63;101795.88;4937853;28;20393;-62
2023/06/27 01:38:44;;;;;;;4.53;1.10;;;;;;;24.69;38.39;101787.44;4937622;29;20031;-62
2023/06/27 01:41:12;;;;;;;5.80;1.88;;;;;;;24.70;37.89;101791.88;4937804;28;20111;-61
2023/06/27 01:43:40;;;;;;;5.97;1.20;;;;;;;24.72;38.17;101792.53;4937649;28;20500;-63
2023/06/27 01:46:07;;;;;;;4.85;1.35;;;;;;;24.71;38.52;101785.34;4953752;28;20087;-63
2023/06/27 01:48:33;;;;;;;4.75;1.65;;;;;;;24.73;38.43;101788.75;4953462;28;20083;-62
2023/06/27 01:50:58;;;;;;;3.25;1.30;;;;;;;24.71;38.29;101784.50;4937602;28;20036;-62
2023/06/27 01:53:24;;;;;;;4.90;1.40;;;;;;;24.70;38.33;101789.16;4937621;29;20031;-62
2023/06/27 01:55:49;;;;;;;2.50;1.27;;;;;;;24.70;38.08;101788.31;4937370;29;20028;-61
2023/06/27 01:58:15;;;;;;;2.10;1.30;;;;;;;24.70;38.80;101791.03;4937414;29;20456;-62
2023/06/27 02:00:41;;;;;;;5.82;1.67;;;;;;;24.69;38.64;101798.41;4937714;29;20511;-62
2023/06/27 02:03:06;;;;;;;2.50;1.30;;;;;;;24.68;38.39;101791.22;4938639;29;20123;-61
2023/06/27 02:05:31;;;;;;;2.45;1.30;;;;;;;24.67;38.18;101784.06;4953313;28;20109;-62
2023/06/27 02:07:57;;;;;;;9.25;1.65;;;;;;;24.65;39.10;101788.88;4921481;29;20039;-62
2023/06/27 02:10:23;;;;;;;4.00;1.23;;;;;;;24.61;38.59;101779.38;4937146;29;20036;-62
2023/06/27 02:12:50;;;;;;;10.45;1.55;;;;;;;24.61;38.80;101790.34;4937160;28;20039;-62
2023/06/27 02:15:16;;;;;;;3.42;1.15;;;;;;;24.61;38.97;101773.03;4937085;29;20039;-61
2023/06/27 02:17:41;;;;;;;3.03;1.13;;;;;;;24.56;38.93;101784.59;4936973;29;20047;-62
2023/06/27 02:20:07;;;;;;;4.00;1.10;;;;;;;24.58;38.79;101778.91;4938223;29;20511;-61
2023/06/27 02:22:32;;;;;;;7.93;1.65;;;;;;;24.56;39.08;101784.59;4935806;29;20176;-61
2023/06/27 02:24:57;;;;;;;4.95;1.20;;;;;;;24.55;39.16;101779.31;4937226;29;20047;-61
2023/06/27 02:27:24;;;;;;;9.57;1.25;;;;;;;24.54;39.01;101778.44;4936228;29;20168;-62
2023/06/27 02:29:49;;;;;;;3.53;1.13;;;;;;;24.54;39.46;101772.97;4921202;29;20181;-62
2023/06/27 02:32:15;;;;;;;3.88;1.48;;;;;;;24.52;39.30;101763.25;4936824;28;20500;-61
2023/06/27 02:34:41;;;;;;;4.43;1.35;;;;;;;24.53;39.13;101765.81;4936917;29;20043;-62
2023/06/27 02:37:06;;;;;;;5.05;1.50;;;;;;;24.50;38.98;101759.88;4936706;29;20040;-62
2023/06/27 02:39:32;;;;;;;8.32;1.88;;;;;;;24.49;39.23;101758.16;4936746;29;20115;-62
2023/06/27 02:41:57;;;;;;;8.80;1.58;;;;;;;24.47;39.72;101772.06;4936957;28;20437;-61
2023/06/27 02:44:22;;;;;;;3.88;1.30;;;;;;;24.49;39.06;101769.97;4938139;29;20090;-61
2023/06/27 02:46:48;;;;;;;9.85;1.52;;;;;;;24.45;38.99;101773.31;4938196;28;20039;-61
2023/06/27 02:49:13;;;;;;;8.40;2.63;;;;;;;24.46;39.37;101764.03;4936778;28;20119;-61
2023/06/27 02:51:39;;;;;;;3.97;1.75;;;;;;;24.45;40.09;101762.34;4938409;29;20122;-62
2023/06/27 02:54:04;;;;;;;4.22;1.40;;;;;;;24.44;39.83;101760.66;4937339;29;20451;-62
2023/06/27 02:56:30;;;;;;;8.48;1.60;;;;;;;24.44;39.86;101775.19;4936917;29;20530;-62
2023/06/27 02:58:55;;;;;;;7.45;2.08;;;;;;;24.40;39.79;101776.63;4936659;29;20048;-62
2023/06/27 03:01:21;;;;;;;7.82;1.60;;;;;;;24.38;39.63;101783.34;4936999;28;20122;-62
2023/06/27 03:03:46;;;;;;;8.20;1.75;;;;;;;24.37;39.54;101788.00;4936728;29;20090;-62
2023/06/27 03:06:12;;;;;;;6.50;1.45;;;;;;;24.36;40.01;101778.09;4921458;29;20057;-62
2023/06/27 03:08:38;;;;;;;4.03;1.10;;;;;;;24.35;40.23;101768.16;4936445;29;20046;-62
2023/06/27 03:11:04;;;;;;;5.00;1.70;;;;;;;24.32;40.18;101779.50;4935306;29;20388;-63
2023/06/27 03:13:29;;;;;;;8.57;1.38;;;;;;;24.31;39.76;101777.81;4951876;28;20043;-62
2023/06/27 03:15:54;;;;;;;6.10;2.03;;;;;;;24.31;39.66;101773.22;4935795;29;20036;-62
2023/06/27 03:18:20;;;;;;;7.03;1.20;;;;;;;24.30;40.08;101774.25;4935857;29;20566;-62
2023/06/27 03:20:45;;;;;;;3.63;1.25;;;;;;;24.29;39.63;101764.31;4937131;29;20040;-62
2023/06/27 03:23:11;;;;;;;6.57;1.70;;;;;;;24.27;40.10;101763.66;4935561;29;20055;-62
2023/06/27 03:25:36;;;;;;;4.63;1.23;;;;;;;24.26;40.24;101781.13;4919701;29;20479;-62
2023/06/27 03:28:02;;;;;;;7.00;1.55;;;;;;;24.25;39.97;101770.38;4932513;28;20060;-62
2023/06/27 03:30:28;;;;;;;11.85;1.45;;;;;;;24.25;40.66;101773.13;4933190;29;20042;-61
2023/06/27 03:32:53;;;;;;;2.85;1.30;;;;;;;24.24;40.65;101785.13;4935372;29;20032;-61
2023/06/27 03:35:19;;;;;;;5.30;1.35;;;;;;;24.23;40.75;101780.69;4935524;28;20103;-62
2023/06/27 03:37:44;;;;;;;4.97;0.98;;;;;;;24.21;40.23;101785.50;4935118;28;20171;-61
2023/06/27 03:40:10;;;;;;;4.82;1.27;;;;;;;24.21;39.88;101782.75;4935448;29;20122;-62
2023/06/27 03:42:35;;;;;;;6.90;1.35;;;;;;;24.19;40.02;101785.72;4936471;28;20051;-62
2023/06/27 03:45:01;;;;;;;6.15;1.58;;;;;;;24.18;39.84;101785.88;4935570;29;20095;-61
2023/06/27 03:47:28;;;;;;;3.17;1.40;;;;;;;24.16;40.22;101790.72;4935226;28;20062;-62
2023/06/27 03:49:55;;;;;;;4.63;1.63;;;;;;;24.15;40.60;101778.06;4935245;29;20024;-61
2023/06/27 03:52:20;;;;;;;5.60;2.38;;;;;;;24.13;40.54;101774.69;4903683;29;20454;-62
2023/06/27 03:54:45;;;;;;;3.28;1.17;;;;;;;24.15;39.99;101784.38;4935129;28;20063;-62
2023/06/27 03:57:11;;;;;;;3.75;1.30;;;;;;;24.16;41.05;101790.72;4919123;29;20091;-62
2023/06/27 03:59:36;;;;;;;3.05;0.80;;;;;;;24.16;40.99;101785.25;4935035;29;20504;-62
2023/06/27 04:02:02;;;;;;;4.88;1.60;;;;;;;24.15;40.45;101778.06;4935161;28;20036;-62
2023/06/27 04:04:27;;;;;;;2.80;1.13;;;;;;;24.14;40.51;101781.84;4935007;29;20586;-62
2023/06/27 04:06:52;;;;;;;9.75;1.85;;;;;;;24.17;40.48;101792.44;4916088;29;20070;-61
2023/06/27 04:09:18;;;;;;;10.25;1.55;;;;;;;24.16;40.57;101790.72;4932758;29;20407;-61
2023/06/27 04:11:43;;;;;;;10.52;1.75;;;;;;;24.14;40.46;101779.13;4934869;29;20035;-61
2023/06/27 04:14:08;;;;;;;4.95;1.13;;;;;;;24.12;40.23;101794.91;4936193;29;20036;-61
2023/06/27 04:16:34;;;;;;;6.50;1.85;;;;;;;24.10;41.12;101791.50;4934809;29;20576;-61
2023/06/27 04:18:59;;;;;;;5.20;1.23;;;;;;;24.10;41.05;101796.97;4935104;29;20043;-62
2023/06/27 04:21:25;;;;;;;4.00;2.08;;;;;;;24.08;41.15;101793.56;4934764;29;20099;-61
2023/06/27 04:23:51;;;;;;;5.88;1.02;;;;;;;24.07;41.26;101787.22;4949529;28;20064;-62
2023/06/27 04:26:17;;;;;;;7.57;2.10;;;;;;;24.03;41.41;101780.47;4934766;28;20036;-61
2023/06/27 04:28:43;;;;;;;3.72;1.17;;;;;;;24.05;40.95;101793.94;4936193;29;20571;-62
2023/06/27 04:31:09;;;;;;;6.05;1.80;;;;;;;24.05;40.87;101793.94;4934872;28;20032;-61
2023/06/27 04:33:39;;;;;;;10.48;1.85;;;;;;;24.03;40.75;101785.06;4933507;28;20043;-62
2023/06/27 04:36:08;;;;;;;6.22;1.60;;;;;;;24.05;40.95;101791.19;4934750;29;20084;-62
2023/06/27 04:38:40;;;;;;;4.60;1.25;;;;;;;24.04;40.96;101787.59;4935648;29;20411;-62
2023/06/27 04:41:09;;;;;;;;;;;;;;;24.07;41.21;101795.44;4934805;28;20035;-62
2023/06/27 04:43:34;;;;;;;2.55;1.52;;;;;;;24.12;40.34;101792.16;4918583;28;20435;-61
2023/06/27 04:46:00;;;;;;;6.80;1.88;;;;;;;24.19;40.83;101787.59;4918605;28;20070;-62
2023/06/27 04:48:26;;;;;;;6.18;1.17;;;;;;;24.25;40.61;101786.81;4934553;28;20099;-61
2023/06/27 04:50:51;;;;;;;3.85;1.05;;;;;;;24.36;40.54;101786.31;4934899;28;20027;-62
2023/06/27 04:53:20;;;;;;;6.43;1.77;;;;;;;24.48;40.50;101784.75;4935065;28;20047;-61
2023/06/27 04:55:49;;;;;;;8.10;1.70;;;;;;;24.57;40.45;101793.63;4934536;28;20016;-62
2023/06/27 04:58:15;;;;;;;3.55;1.55;;;;;;;24.64;40.83;101800.91;4938193;28;20063;-61
2023/06/27 05:00:40;;;;;;;8.55;2.90;;;;;;;24.75;40.18;101794.88;4934443;28;20071;-61
2023/06/27 05:03:06;;;;;;;6.65;2.28;;;;;;;24.88;40.54;101791.41;4918523;28;20114;-62
2023/06/27 05:05:33;;;;;;;13.75;2.05;;;;;;;24.99;40.49;101788.13;4935731;29;20109;-61
2023/06/27 05:08:00;;;;;;;4.07;1.30;;;;;;;25.10;40.49;101792.22;4935634;29;20114;-61
2023/06/27 05:10:26;;;;;;;8.07;1.70;;;;;;;25.19;40.21;101791.00;4950324;28;20035;-61
2023/06/27 05:12:51;;;;;;;3.95;1.55;;;;;;;25.29;39.87;101795.06;4935640;29;20035;-62
2023/06/27 05:15:16;;;;;;;8.57;1.80;;;;;;;25.40;40.06;101788.19;4934025;29;20032;-61
2023/06/27 05:17:51;;;;;;;8.73;1.67;;;;;;;25.45;40.18;101791.16;4950253;28;20046;-61
2023/06/27 05:20:17;;;;;;;5.80;1.20;;;;;;;25.51;39.98;101795.03;4935270;29;20118;-62
2023/06/27 05:22:42;;;;;;;10.40;1.58;;;;;;;25.60;39.71;101786.41;4949750;28;20044;-62
2023/06/27 05:25:08;;;;;;;5.38;2.05;;;;;;;25.70;39.52;101791.53;4935401;29;20039;-61
2023/06/27 05:27:33;;;;;;;7.60;2.72;;;;;;;25.79;39.44;101793.91;4935522;29;20024;-61
2023/06/27 05:29:59;;;;;;;5.47;1.40;;;;;;;25.86;39.73;101792.00;4950211;28;20126;-60
2023/06/27 05:32:24;;;;;;;8.18;1.58;;;;;;;25.95;39.91;101790.78;4934650;28;20555;-61
2023/06/27 05:34:50;;;;;;;9.07;1.23;;;;;;;26.09;39.89;101791.66;4915470;29;20036;-61
2023/06/27 05:37:15;;;;;;;7.50;2.08;;;;;;;26.18;39.19;101795.94;4920237;29;20067;-61
2023/06/27 05:39:40;;;;;;;10.85;1.60;;;;;;;26.28;39.20;101801.03;4943993;28;20470;-61
2023/06/27 05:42:07;;;;;;;6.80;1.38;;;;;;;26.36;39.03;101792.59;4933712;29;20035;-61
2023/06/27 05:44:32;;;;;;;10.23;1.75;;;;;;;26.52;38.73;101801.28;4933958;28;20035;-63
2023/06/27 05:46:58;;;;;;;4.45;1.40;;;;;;;26.63;38.96;101796.22;4935119;28;20044;-62
2023/06/27 05:49:23;;;;;;;5.57;1.65;;;;;;;26.78;38.52;101796.84;4933949;29;20039;-61
2023/06/27 05:51:49;;;;;;;6.55;1.35;;;;;;;26.86;39.09;101794.75;4917949;29;20172;-61
2023/06/27 05:54:14;;;;;;;6.18;1.65;;;;;;;27.02;38.54;101794.34;4934998;29;20407;-61
2023/06/27 05:56:40;;;;;;;5.03;1.33;;;;;;;27.18;38.57;101796.63;4932849;29;20042;-61
2023/06/27 05:59:05;;;;;;;6.38;1.85;;;;;;;27.34;38.49;101791.72;4933720;29;20054;-61
2023/06/27 06:01:30;;;;;;;8.10;1.48;;;;;;;27.51;38.33;101796.56;4937004;29;20032;-61
2023/06/27 06:03:56;;;;;;;8.32;1.52;;;;;;;27.65;38.42;101791.88;4953334;28;20492;-61
2023/06/27 06:06:21;;;;;;;9.38;2.60;;;;;;;27.82;37.81;101795.81;4937309;29;20035;-61
2023/06/27 06:08:47;;;;;;;3.58;1.52;;;;;;;27.95;37.89;101798.50;4953135;28;20051;-61
2023/06/27 06:11:12;;;;;;;10.80;2.28;;;;;;;28.09;37.30;101791.88;4938277;29;20028;-61
2023/06/27 06:13:37;;;;;;;7.50;1.45;;;;;;;28.14;37.94;101789.31;4937057;28;20059;-61
2023/06/27 06:16:03;;;;;;;4.47;1.38;;;;;;;28.20;36.80;101788.44;4938353;29;20040;-61
2023/06/27 06:18:28;;;;;;;7.53;1.60;;;;;;;28.29;36.96;101798.13;4921133;29;20038;-61
2023/06/27 06:20:55;;;;;;;8.05;1.75;;;;;;;28.40;37.47;101792.97;4921045;29;20456;-63
2023/06/27 06:23:20;;;;;;;7.15;2.25;;;;;;;28.50;37.65;101791.41;4936663;28;20036;-61
2023/06/27 06:25:45;;;;;;;8.30;1.67;;;;;;;28.63;36.99;101787.72;4938194;29;20134;-62
2023/06/27 06:28:11;;;;;;;14.68;1.65;;;;;;;28.81;36.21;101774.81;4938355;28;20411;-61
2023/06/27 06:30:36;;;;;;;7.35;1.85;;;;;;;28.98;37.08;101780.63;4936876;29;20491;-62
2023/06/27 06:33:01;;;;;;;11.35;1.65;;;;;;;29.16;36.15;101777.91;4952550;28;20071;-62
2023/06/27 06:35:27;;;;;;;4.82;1.67;;;;;;;29.32;36.59;101782.84;4934482;28;20058;-62
2023/06/27 06:37:52;;;;;;;6.28;1.90;;;;;;;29.45;36.43;101787.38;4929989;28;20083;-61
2023/06/27 06:40:18;;;;;;;5.93;1.40;;;;;;;29.53;36.31;101789.84;4936808;28;20036;-62
2023/06/27 06:42:43;;;;;;;10.43;1.27;;;;;;;29.67;36.11;101785.00;4937959;29;20098;-62
2023/06/27 06:45:09;;;;;;;9.70;1.63;;;;;;;29.80;35.48;101784.84;4936757;29;20032;-62
2023/06/27 06:47:35;;;;;;;9.98;1.90;;;;;;;29.93;35.29;101787.44;4938268;28;20451;-61
2023/06/27 06:50:00;;;;;;;10.85;1.67;;;;;;;30.06;35.75;101780.88;4936556;28;20103;-61
2023/06/27 06:52:26;;;;;;;9.10;1.40;;;;;;;30.21;35.27;101787.66;4952721;28;20031;-61
2023/06/27 06:54:51;;;;;;;6.88;1.42;;;;;;;30.34;35.36;101786.63;4936382;28;20118;-62
2023/06/27 06:57:17;;;;;;;4.00;1.33;;;;;;;30.28;35.30;101793.09;4936363;29;20079;-61
2023/06/27 06:59:42;;;;;;;5.15;1.45;;;;;;;30.37;35.14;101791.72;4935246;29;20075;-61
2023/06/27 07:02:07;;;;;;;7.72;1.65;;;;;;;30.55;35.27;101789.72;4952344;28;20384;-62
2023/06/27 07:04:33;;;;;;;12.63;1.83;;;;;;;30.72;34.32;101787.09;4916350;29;20032;-61
2023/06/27 07:06:59;;;;;;;7.75;1.50;;;;;;;30.81;34.25;101790.34;4926063;29;20086;-62
2023/06/27 07:09:24;;;;;;;6.47;1.27;;;;;;;30.97;34.50;101786.91;4937613;29;20039;-62
2023/06/27 07:11:51;;;;;;;7.43;1.70;;;;;;;31.21;34.34;101788.59;4937198;29;20040;-62
2023/06/27 07:14:18;;;;;;;2.45;1.05;;;;;;;31.43;34.24;101786.88;4935863;29;20396;-62
2023/06/27 07:16:44;;;;;;;9.52;1.80;;;;;;;31.66;33.61;101794.31;4936491;29;20094;-62
2023/06/27 07:19:09;;;;;;;5.90;1.20;;;;;;;31.85;33.25;101795.84;4937240;29;20460;-62
2023/06/27 07:21:35;;;;;;;5.90;1.73;;;;;;;32.05;33.03;101789.91;4935786;29;20051;-62
2023/06/27 07:24:01;;;;;;;8.30;1.92;;;;;;;32.25;32.73;101790.25;4935707;28;20488;-62
2023/06/27 07:26:26;;;;;;;8.85;1.85;;;;;;;32.40;32.76;101793.31;4936015;29;20377;-62
2023/06/27 07:28:51;;;;;;;5.55;2.10;;;;;;;32.57;32.98;101804.47;4937158;29;20035;-62
2023/06/27 07:31:17;;;;;;;8.32;1.90;;;;;;;32.68;33.08;101795.22;4937020;29;20036;-62
2023/06/27 07:33:42;;;;;;;6.07;1.58;;;;;;;32.92;33.17;101790.31;4935725;29;20595;-62
2023/06/27 07:36:07;;;;;;;6.22;1.75;;;;;;;33.03;32.96;101781.09;4935751;28;20042;-62
2023/06/27 07:38:33;;;;;;;8.75;2.17;;;;;;;33.14;32.10;101778.22;4935531;29;20050;-62
2023/06/27 07:40:58;;;;;;;5.60;1.58;;;;;;;33.25;31.70;101784.78;4935709;29;20086;-62
2023/06/27 07:43:24;;;;;;;7.82;2.42;;;;;;;33.39;31.41;101784.13;4935636;29;20040;-62
2023/06/27 07:45:49;;;;;;;8.95;2.80;;;;;;;33.59;31.38;101791.06;4935665;28;20412;-62
2023/06/27 07:48:16;;;;;;;9.43;2.17;;;;;;;33.78;31.83;101793.28;4935538;29;20049;-62
2023/06/27 07:50:41;;;;;;;4.93;1.60;;;;;;;33.95;31.81;101793.19;4916591;29;20032;-62
2023/06/27 07:53:06;;;;;;;6.10;1.67;;;;;;;34.09;31.30;101796.47;4925800;29;20056;-62
2023/06/27 07:55:32;;;;;;;8.05;1.77;;;;;;;34.26;30.40;101791.59;4919530;29;20531;-62
2023/06/27 07:57:57;;;;;;;7.40;1.45;;;;;;;34.39;30.44;101791.22;4935648;29;20036;-62
2023/06/27 08:00:23;;;;;;;4.65;2.08;;;;;;;34.44;30.61;101785.69;4935631;29;20047;-62
2023/06/27 08:02:48;;;;;;;6.75;1.67;;;;;;;34.30;30.49;101788.06;4935879;29;20496;-62
2023/06/27 08:05:14;;;;;;;6.43;1.42;;;;;;;34.15;30.58;101785.09;4935266;29;20119;-62
2023/06/27 08:07:39;;;;;;;6.40;1.27;;;;;;;34.04;30.89;101788.84;4935169;29;20039;-62
2023/06/27 08:10:05;;;;;;;5.43;1.60;;;;;;;34.17;30.86;101784.88;4936675;29;20035;-62
2023/06/27 08:12:30;;;;;;;4.60;0.90;;;;;;;34.12;29.69;101779.22;4936019;29;20111;-62
2023/06/27 08:14:56;;;;;;;9.68;1.73;;;;;;;34.14;30.38;101772.31;4935394;29;20051;-62
2023/06/27 08:17:21;;;;;;;3.88;1.75;;;;;;;34.19;31.18;101774.31;4936676;29;20541;-62
2023/06/27 08:19:47;;;;;;;5.68;1.90;;;;;;;34.17;29.93;101776.50;4937278;29;20126;-61
2023/06/27 08:22:13;;;;;;;12.07;2.10;;;;;;;34.26;30.17;101774.91;4952064;28;20056;-61
2023/06/27 08:24:40;;;;;;;5.72;1.60;;;;;;;34.32;30.37;101776.66;4940474;29;20094;-62
2023/06/27 08:27:05;;;;;;;10.35;2.00;;;;;;;34.58;29.46;101773.03;4942568;28;20551;-61
2023/06/27 08:29:31;;;;;;;6.80;1.73;;;;;;;34.21;30.68;101769.31;4957694;28;20127;-61
2023/06/27 08:31:59;;;;;;;8.13;1.40;;;;;;;34.37;30.08;101768.34;4941755;29;20055;-61
2023/06/27 08:34:29;;;;;;;5.15;1.70;;;;;;;34.53;29.59;101765.44;4943573;29;20039;-60
2023/06/27 08:36:55;;;;;;;8.02;1.38;;;;;;;34.63;30.20;101764.72;4941381;29;20041;-60
2023/06/27 08:39:20;;;;;;;5.00;1.40;;;;;;;34.56;29.20;101757.66;4941788;29;20063;-61
2023/06/27 08:41:46;;;;;;;5.25;1.92;;;;;;;34.46;29.92;101763.97;4939876;29;20038;-61
2023/06/27 08:44:11;;;;;;;6.18;1.00;;;;;;;34.46;30.12;101752.84;4937766;29;20055;-61
2023/06/27 08:46:38;;;;;;;6.40;0.93;;;;;;;34.57;29.50;101754.63;4937674;29;20099;-61
2023/06/27 08:49:03;;;;;;;5.88;1.10;;;;;;;34.56;29.18;101752.94;4918549;29;20057;-61
2023/06/27 08:51:33;;;;;;;8.30;1.25;;;;;;;34.75;28.91;101751.47;4934392;28;20500;-61
2023/06/27 08:54:05;;;;;;;7.45;1.33;;;;;;;35.03;28.79;101755.81;4934560;29;20495;-62
2023/06/27 08:56:32;;;;;;;6.70;1.33;;;;;;;35.17;28.12;101753.44;4934436;29;20036;-62
2023/06/27 08:59:02;;;;;;;4.90;1.30;;;;;;;35.25;28.92;101750.13;4931242;28;20044;-62
2023/06/27 09:01:31;;;;;;;3.53;1.25;;;;;;;35.38;28.33;101739.31;4930260;29;20127;-61
2023/06/27 09:03:57;;;;;;;4.90;2.35;;;;;;;35.75;27.89;101744.78;4935682;29;20035;-62
2023/06/27 09:06:22;;;;;;;5.63;1.58;;;;;;;35.87;27.70;101742.59;4934346;29;20081;-61
2023/06/27 09:08:48;;;;;;;2.75;1.17;;;;;;;35.90;27.66;101741.22;4934385;29;20056;-63
2023/06/27 09:11:15;;;;;;;4.82;1.20;;;;;;;36.04;27.54;101742.38;4934034;28;20492;-61
2023/06/27 09:13:41;;;;;;;4.55;0.70;;;;;;;36.21;26.93;101743.78;4934180;29;20028;-61
2023/06/27 09:16:06;;;;;;;8.90;1.60;;;;;;;36.48;27.17;101745.50;4930902;28;20100;-62
2023/06/27 09:18:36;;;;;;;7.35;1.63;;;;;;;36.67;26.87;101753.06;4931050;29;20039;-61
2023/06/27 09:21:02;;;;;;;3.70;1.77;;;;;;;36.82;27.05;101738.25;4935596;28;20032;-62
2023/06/27 09:23:29;;;;;;;7.65;2.15;;;;;;;36.67;26.59;101752.22;4935244;29;20048;-62
2023/06/27 09:26:11;;;;;;;3.45;0.90;;;;;;;36.33;26.75;101756.63;4934114;28;20040;-61
2023/06/27 09:28:45;;;;;;;4.25;0.93;;;;;;;36.18;26.75;101749.13;4933782;28;20047;-62
2023/06/27 09:31:12;;;;;;;3.47;0.75;;;;;;;35.88;27.17;101744.25;4918248;28;20032;-61
2023/06/27 09:33:37;;;;;;;3.47;1.05;;;;;;;36.08;26.70;101744.34;4934163;28;20062;-61
2023/06/27 09:36:03;;;;;;;3.00;0.90;;;;;;;36.30;26.33;101746.88;4935361;28;20063;-63
2023/06/27 09:38:34;;;;;;;6.30;1.15;;;;;;;36.59;26.40;101741.59;4937700;28;20042;-62
2023/06/27 09:41:03;;;;;;;2.15;1.00;;;;;;;36.39;26.37;101744.38;4939052;29;20456;-63
2023/06/27 09:43:31;;;;;;;3.70;1.30;;;;;;;36.47;25.85;101749.38;4938939;29;20047;-63
2023/06/27 09:45:58;;;;;;;2.53;0.73;;;;;;;36.25;25.96;101734.88;4953468;28;20035;-63
2023/06/27 09:48:24;;;;;;;4.35;1.20;;;;;;;36.47;26.13;101741.00;4937473;28;20046;-63
2023/06/27 09:50:57;;;;;;;4.25;1.08;;;;;;;36.61;25.90;101737.41;4937665;29;20396;-61
2023/06/27 09:53:22;;;;;;;4.82;1.20;;;;;;;36.59;25.96;101745.25;4918310;29;20488;-60
2023/06/27 09:55:48;;;;;;;2.33;0.88;;;;;;;36.55;25.86;101738.53;4937295;29;20043;-62
2023/06/27 09:58:13;;;;;;;8.20;1.75;;;;;;;36.55;26.14;101732.94;4938839;29;20039;-61
2023/06/27 10:00:38;;;;;;;3.03;1.02;;;;;;;36.43;25.78;101735.16;4937266;29;20048;-61
2023/06/27 10:03:08;;;;;;;1.08;0.80;;;;;;;36.56;25.61;101731.00;4937408;29;20039;-61
2023/06/27 10:05:33;;;;;;;5.88;5.28;;;;;;;37.09;24.92;101741.56;4938381;29;20082;-61
2023/06/27 10:07:59;;;;;;;5.10;4.80;;;;;;;37.53;24.81;101732.47;4937462;29;20040;-61
2023/06/27 10:10:25;;;;;;;9.73;9.20;;;;;;;38.05;23.81;101737.53;4937251;29;20515;-61
2023/06/27 10:12:51;;;;;;;2.85;0.60;;;;;;;37.69;24.55;101742.47;4937063;28;20504;-61
2023/06/27 10:15:17;;;;;;;4.40;1.23;;;;;;;37.23;23.95;101739.84;4936990;29;20046;-61
2023/06/27 10:17:44;;;;;;;2.28;0.80;;;;;;;37.05;24.86;101743.22;4938242;29;20115;-62
2023/06/27 10:20:11;;;;;;;5.53;0.80;;;;;;;36.73;25.16;101745.50;4936879;28;20046;-61
2023/06/27 10:22:39;;;;;;;3.95;0.98;;;;;;;36.50;24.79;101751.66;4936792;29;20066;-61
2023/06/27 10:25:05;;;;;;;4.07;0.98;;;;;;;36.01;25.00;101749.34;4936853;28;20035;-61
2023/06/27 10:27:36;;;;;;;1.40;0.82;;;;;;;35.51;24.91;101755.53;4952798;28;20039;-61
2023/06/27 10:30:15;;;;;;;2.00;0.60;;;;;;;35.16;25.32;101747.00;4936758;29;20111;-61
2023/06/27 10:32:44;;;;;;;4.30;0.90;;;;;;;35.11;25.68;101748.94;4936976;29;20051;-61
2023/06/27 10:35:11;;;;;;;2.65;0.70;;;;;;;35.11;25.68;101746.97;4936956;29;20043;-61
2023/06/27 10:37:38;;;;;;;5.47;1.92;;;;;;;35.51;24.60;101749.97;4936824;28;20044;-62
2023/06/27 10:40:04;;;;;;;3.05;1.55;;;;;;;36.03;24.98;101752.72;4936744;28;20141;-61
2023/06/27 10:42:31;;;;;;;2.17;1.02;;;;;;;35.71;24.69;101745.63;4937858;28;20130;-61
2023/06/27 10:44:59;;;;;;;4.05;0.80;;;;;;;35.40;25.16;101750.22;4936519;29;20039;-62
2023/06/27 10:47:33;;;;;;;2.33;0.90;;;;;;;35.11;24.53;101746.13;4936597;29;20639;-62
2023/06/27 10:50:08;;;;;;;4.82;0.80;;;;;;;34.87;25.10;101745.69;4946205;29;20031;-60
2023/06/27 10:52:33;;;;;;;3.13;0.73;;;;;;;34.60;25.86;101745.75;4947159;28;20387;-63
2023/06/27 10:55:14;;;;;;;2.10;0.93;;;;;;;34.36;25.79;101749.97;4938426;29;20031;-62
2023/06/27 10:57:44;;;;;;;7.57;0.95;;;;;;;34.17;25.83;101743.13;4946071;28;20055;-62
2023/06/27 11:00:28;;;;;;;1.42;0.75;;;;;;;34.04;26.17;101751.84;4952840;28;20077;-63
2023/06/27 11:02:55;;;;;;;4.30;0.95;;;;;;;33.99;25.20;101752.63;4942079;29;20126;-63
2023/06/27 11:05:46;;;;;;;2.78;0.75;;;;;;;34.06;25.41;101753.25;4936145;28;20023;-62
2023/06/27 11:08:17;;;;;;;1.67;0.60;;;;;;;34.41;25.94;101755.59;4952162;28;20035;-60
2023/06/27 11:10:50;;;;;;;2.97;0.95;;;;;;;34.51;25.74;101753.72;4951973;28;20036;-60
2023/06/27 11:13:16;;;;;;;3.60;0.85;;;;;;;34.42;26.10;101751.72;4936089;29;20508;-60
2023/06/27 11:15:44;;;;;;;5.05;0.77;;;;;;;34.24;25.65;101754.88;4935984;29;20098;-62
2023/06/27 11:18:11;;;;;;;5.15;0.88;;;;;;;34.00;25.37;101750.72;4953773;28;20023;-62
2023/06/27 11:20:37;;;;;;;4.88;1.15;;;;;;;33.68;26.17;101748.69;4954924;28;20098;-62